Time;durP1;ratioP1;P1;durP2;ratioP2;P2;SDS_P1;SDS_P2;PMS_P1;PMS_P2;Temp;Humidity;BMP_temperature;BMP_pressure;BME280_temperature;BME280_humidity;BME280_pressure;Samples;Min_cycle;Max_cycle;Signal;HPM_P1;HPM_P2
2021/06/02 00:01:59;;;;;;;1.70;1.60;;;;;;;22.36;46.61;99839.52;1744910;79;21129;-69
2021/06/02 00:04:31;;;;;;;1.87;1.37;;;;;;;22.35;46.63;99839.25;1753739;79;21301;-69
2021/06/02 00:07:06;;;;;;;1.60;1.50;;;;;;;22.32;46.70;99836.48;1755151;80;21063;-70
2021/06/02 00:09:32;;;;;;;1.60;1.50;;;;;;;22.30;46.74;99837.80;1761152;79;21411;-69
2021/06/02 00:12:04;;;;;;;1.67;1.40;;;;;;;22.29;46.76;99836.14;1735409;80;21092;-68
2021/06/02 00:14:31;;;;;;;2.00;1.80;;;;;;;22.28;46.79;99827.75;1730197;82;21246;-70
2021/06/02 00:16:59;;;;;;;1.75;1.65;;;;;;;22.26;46.80;99834.75;1712132;82;21096;-70
2021/06/02 00:22:47;;;;;;;1.90;1.70;;;;;;;22.26;46.92;99819.86;1795690;79;22015;-70
2021/06/02 00:25:16;;;;;;;2.02;1.55;;;;;;;22.26;46.88;99821.77;1771759;80;21016;-69
2021/06/02 00:27:44;;;;;;;1.92;1.55;;;;;;;22.28;46.86;99816.92;1763625;80;21033;-68
2021/06/02 00:30:11;;;;;;;1.80;1.32;;;;;;;22.28;46.86;99822.34;1764727;80;21033;-70
2021/06/02 00:32:38;;;;;;;1.60;1.50;;;;;;;22.27;46.85;99817.46;1772211;80;21036;-70
2021/06/02 00:35:07;;;;;;;1.60;1.50;;;;;;;22.26;46.83;99825.28;1762165;80;21049;-69
2021/06/02 00:37:34;;;;;;;2.27;1.60;;;;;;;22.26;46.84;99820.41;1765994;80;21049;-71
2021/06/02 00:40:03;;;;;;;1.82;1.62;;;;;;;22.25;46.88;99818.75;1782793;80;22007;-69
2021/06/02 00:42:31;;;;;;;1.72;1.62;;;;;;;22.23;46.89;99816.79;1775265;79;21057;-69
2021/06/02 00:44:59;;;;;;;2.00;1.52;;;;;;;22.22;46.92;99811.92;1757230;80;21525;-69
2021/06/02 00:47:25;;;;;;;1.57;1.47;;;;;;;22.21;46.96;99811.61;1721341;81;21065;-69
2021/06/02 00:49:52;;;;;;;1.92;1.60;;;;;;;22.21;46.95;99805.39;1715748;83;21055;-69
2021/06/02 00:52:19;;;;;;;1.60;1.50;;;;;;;22.20;46.97;99805.94;1721651;81;21932;-66
2021/06/02 00:54:45;;;;;;;2.67;1.60;;;;;;;22.18;46.99;99802.65;1723008;83;21029;-69
2021/06/02 00:57:18;;;;;;;1.95;1.80;;;;;;;22.16;47.06;99802.88;1715981;83;21064;-66
2021/06/02 01:00:04;;;;;;;1.80;1.70;;;;;;;22.16;47.10;99806.95;1731374;81;21041;-68
2021/06/02 01:02:31;;;;;;;1.62;1.52;;;;;;;22.15;47.10;99809.34;1743322;81;21031;-68
2021/06/02 01:04:57;;;;;;;1.52;1.42;;;;;;;22.13;47.13;99812.02;1734696;81;21110;-67
2021/06/02 01:07:24;;;;;;;1.60;1.50;;;;;;;22.11;47.15;99805.48;1746403;81;21560;-68
2021/06/02 01:09:58;;;;;;;1.70;1.45;;;;;;;22.11;47.17;99805.48;1747672;81;21084;-69
2021/06/02 01:12:26;;;;;;;2.15;1.95;;;;;;;22.11;47.21;99799.27;1748299;81;21651;-68
2021/06/02 01:14:55;;;;;;;1.57;1.47;;;;;;;22.10;47.25;99799.80;1752476;81;21082;-68
2021/06/02 01:17:24;;;;;;;1.60;1.50;;;;;;;22.10;47.32;99797.64;1745194;81;21814;-69
2021/06/02 01:19:52;;;;;;;2.95;2.25;;;;;;;22.10;47.32;99799.80;1729449;81;21392;-68
2021/06/02 01:22:18;;;;;;;1.60;1.50;;;;;;;22.11;47.25;99801.97;1697904;83;21053;-68
2021/06/02 01:24:46;;;;;;;1.60;1.50;;;;;;;22.09;47.32;99803.56;1722361;81;21482;-68
2021/06/02 01:27:14;;;;;;;1.70;1.60;;;;;;;22.09;47.28;99790.03;1712043;81;21084;-69
2021/06/02 01:29:49;;;;;;;1.80;1.70;;;;;;;22.10;47.32;99789.52;1717914;83;21156;-69
2021/06/02 01:32:47;;;;;;;1.57;1.47;;;;;;;22.09;47.32;99790.03;1723273;83;21104;-67
2021/06/02 01:35:52;;;;;;;2.08;1.85;;;;;;;22.09;47.33;99792.73;1720969;81;21084;-69
2021/06/02 01:38:51;;;;;;;1.57;1.47;;;;;;;22.07;47.35;99793.52;1717238;81;21026;-68
2021/06/02 01:41:34;;;;;;;1.80;1.70;;;;;;;22.05;47.38;99797.00;1716002;83;21595;-68
2021/06/02 01:44:38;;;;;;;1.70;1.60;;;;;;;22.03;47.45;99798.31;1720927;82;21071;-67
2021/06/02 01:47:22;;;;;;;1.60;1.50;;;;;;;22.01;47.52;99799.90;1715317;81;21045;-67
2021/06/02 01:50:17;;;;;;;1.70;1.60;;;;;;;21.99;47.53;99799.32;1715715;82;21077;-67
2021/06/02 01:53:12;;;;;;;1.60;1.50;;;;;;;21.96;47.60;99800.63;1722394;82;21233;-67
2021/06/02 01:56:35;;;;;;;1.80;1.70;;;;;;;21.96;47.63;99799.80;1700392;81;21575;-68
2021/06/02 01:59:47;;;;;;;1.30;1.20;;;;;;;21.94;47.68;99800.06;1716768;83;21147;-67
2021/06/02 02:02:47;;;;;;;1.60;1.50;;;;;;;21.91;47.75;99793.77;1715511;83;21928;-67
2021/06/02 02:05:45;;;;;;;2.15;1.67;;;;;;;21.89;47.82;99804.55;1721453;83;21553;-66
2021/06/02 02:08:36;;;;;;;1.50;1.40;;;;;;;21.87;47.84;99804.78;1680885;82;21070;-67
2021/06/02 02:11:36;;;;;;;1.52;1.42;;;;;;;21.86;47.88;99800.95;1698988;81;21077;-68
2021/06/02 02:14:18;;;;;;;1.82;1.67;;;;;;;21.85;47.92;99808.80;1702473;81;21105;-70
2021/06/02 02:17:27;;;;;;;3.37;1.70;;;;;;;21.84;47.97;99815.25;1682920;84;22153;-71
2021/06/02 02:20:16;;;;;;;1.62;1.52;;;;;;;21.84;48.01;99822.02;1702011;81;21109;-70
2021/06/02 02:23:26;;;;;;;1.60;1.50;;;;;;;21.83;48.06;99813.59;1709625;82;21042;-71
2021/06/02 02:26:24;;;;;;;1.70;1.60;;;;;;;21.83;48.05;99812.25;1716447;83;21639;-69
2021/06/02 02:29:14;;;;;;;1.70;1.60;;;;;;;21.81;48.06;99811.16;1719088;83;21162;-69
2021/06/02 02:31:47;;;;;;;2.50;1.47;;;;;;;21.80;48.13;99807.61;1720353;82;21120;-68
2021/06/02 02:34:33;;;;;;;1.50;1.40;;;;;;;21.79;48.16;99817.34;1715877;82;21097;-69
2021/06/02 02:37:07;;;;;;;1.62;1.50;;;;;;;21.80;48.18;99825.72;1653582;82;21019;-68
2021/06/02 02:39:45;;;;;;;1.65;1.52;;;;;;;21.79;48.21;99814.63;1711167;82;21585;-69
2021/06/02 02:42:43;;;;;;;1.62;1.52;;;;;;;21.81;48.21;99819.27;1717449;82;21921;-67
2021/06/02 02:45:21;;;;;;;1.50;1.40;;;;;;;21.82;48.21;99820.08;1717828;82;21557;-68
2021/06/02 02:48:11;;;;;;;1.80;1.52;;;;;;;21.82;48.24;99821.44;1720119;82;21029;-67
2021/06/02 02:51:13;;;;;;;1.50;1.40;;;;;;;21.82;48.20;99820.08;1718046;83;21078;-67
2021/06/02 02:53:54;;;;;;;1.55;1.45;;;;;;;21.81;48.23;99830.09;1712110;82;22389;-67
2021/06/02 02:56:38;;;;;;;1.77;1.67;;;;;;;21.79;48.27;99826.27;1712697;82;21088;-68
2021/06/02 02:59:11;;;;;;;1.57;1.47;;;;;;;21.80;48.26;99823.83;1715862;82;21033;-68
2021/06/02 03:01:50;;;;;;;1.70;1.60;;;;;;;21.82;48.27;99834.95;1714469;83;21130;-69
2021/06/02 03:04:25;;;;;;;1.60;1.40;;;;;;;21.83;48.27;99837.93;1716052;82;21034;-68
2021/06/02 03:06:57;;;;;;;1.70;1.60;;;;;;;21.83;48.33;99833.87;1720297;82;21578;-68
2021/06/02 03:09:40;;;;;;;1.60;1.50;;;;;;;21.83;48.32;99837.42;1717083;83;21054;-68
2021/06/02 03:12:21;;;;;;;2.42;1.52;;;;;;;21.84;48.37;99849.87;1714539;83;21073;-67
2021/06/02 03:15:06;;;;;;;1.50;1.30;;;;;;;21.85;48.36;99838.00;1685400;85;21078;-69
2021/06/02 03:17:39;;;;;;;1.65;1.55;;;;;;;21.85;48.36;99835.84;1682733;85;21825;-69
2021/06/02 03:20:29;;;;;;;1.50;1.40;;;;;;;21.85;48.32;99843.41;1684997;85;21082;-69
2021/06/02 03:23:10;;;;;;;1.47;1.37;;;;;;;21.84;48.37;99840.41;1678688;85;21106;-68
2021/06/02 03:26:12;;;;;;;1.65;1.55;;;;;;;21.85;48.43;99846.66;1664222;85;21530;-69
2021/06/02 03:29:10;;;;;;;1.52;1.42;;;;;;;21.85;48.47;99833.95;1723190;82;21109;-69
2021/06/02 03:32:07;;;;;;;2.02;1.75;;;;;;;21.86;48.49;99840.17;1739105;82;21076;-68
2021/06/02 03:34:48;;;;;;;2.00;1.50;;;;;;;21.85;48.59;99838.55;1732157;80;21025;-68
2021/06/02 03:37:35;;;;;;;2.00;1.80;;;;;;;21.86;48.62;99852.34;1737927;80;21526;-69
2021/06/02 03:40:13;;;;;;;1.55;1.45;;;;;;;21.86;48.68;99850.98;1741274;82;21653;-67
2021/06/02 03:42:59;;;;;;;1.60;1.50;;;;;;;21.87;48.68;99841.29;1740863;82;21057;-68
2021/06/02 03:45:40;;;;;;;1.65;1.35;;;;;;;21.90;48.66;99850.80;1687901;82;21007;-69
2021/06/02 03:48:32;;;;;;;1.57;1.47;;;;;;;21.91;48.66;99851.91;1738083;82;21029;-69
2021/06/02 03:51:21;;;;;;;2.20;1.62;;;;;;;21.91;48.76;99854.62;1739479;81;21148;-69
2021/06/02 03:54:11;;;;;;;1.50;1.30;;;;;;;21.92;48.76;99850.86;1733256;82;21465;-69
2021/06/02 03:56:49;;;;;;;2.05;1.45;;;;;;;21.94;48.70;99843.84;1739147;80;21049;-70
2021/06/02 03:59:50;;;;;;;1.55;1.45;;;;;;;21.93;48.72;99834.91;1739425;82;21022;-69
2021/06/02 04:02:24;;;;;;;1.20;1.17;;;;;;;21.96;48.74;99840.36;1742720;80;21025;-69
2021/06/02 04:05:47;;;;;;;1.60;1.50;;;;;;;21.96;48.78;99837.66;1734705;80;21934;-70
2021/06/02 04:08:42;;;;;;;1.52;1.42;;;;;;;21.97;48.75;99834.72;1741297;82;21976;-69
2021/06/02 04:11:36;;;;;;;1.80;1.50;;;;;;;21.97;48.75;99841.48;1740744;80;21029;-68
2021/06/02 04:14:06;;;;;;;1.87;1.42;;;;;;;21.97;48.78;99830.66;1735699;82;21004;-67
2021/06/02 04:16:38;;;;;;;1.60;1.50;;;;;;;21.98;48.83;99835.53;1740717;81;21068;-66
2021/06/02 04:19:07;;;;;;;1.60;1.50;;;;;;;22.00;48.80;99840.20;1742431;82;21146;-67
2021/06/02 04:21:36;;;;;;;1.95;1.45;;;;;;;22.03;48.82;99839.70;1742196;80;21048;-67
2021/06/02 04:24:05;;;;;;;1.87;1.70;;;;;;;22.05;48.82;99840.27;1750089;81;21045;-68
2021/06/02 04:26:34;;;;;;;1.90;1.60;;;;;;;22.08;48.87;99838.45;1741673;81;21009;-67
2021/06/02 04:29:04;;;;;;;1.45;1.35;;;;;;;22.10;48.82;99844.44;1731709;80;21008;-66
2021/06/02 04:31:30;;;;;;;2.30;1.65;;;;;;;22.12;48.76;99845.56;1748942;80;21537;-68
2021/06/02 04:33:58;;;;;;;2.30;1.62;;;;;;;22.14;48.76;99842.08;1743585;81;21014;-68
2021/06/02 04:36:25;;;;;;;1.30;1.20;;;;;;;22.16;48.76;99836.70;1750736;81;21048;-67
2021/06/02 04:38:55;;;;;;;1.87;1.60;;;;;;;22.19;48.71;99840.80;1750653;81;21092;-67
2021/06/02 04:41:24;;;;;;;1.92;1.52;;;;;;;22.21;48.74;99842.73;1749633;80;21682;-67
2021/06/02 04:43:53;;;;;;;1.40;1.30;;;;;;;22.24;48.71;99837.39;1750388;80;21139;-68
2021/06/02 04:46:20;;;;;;;1.52;1.37;;;;;;;22.26;48.74;99835.29;1738861;81;21014;-67
2021/06/02 04:48:52;;;;;;;1.50;1.40;;;;;;;22.29;48.68;99831.57;1749954;80;21076;-66
2021/06/02 04:51:35;;;;;;;2.27;1.30;;;;;;;22.31;48.67;99827.24;1740834;81;21060;-66
2021/06/02 04:54:25;;;;;;;1.72;1.62;;;;;;;22.34;48.67;99840.30;1750010;81;21026;-66
2021/06/02 04:57:43;;;;;;;1.70;1.60;;;;;;;22.34;48.68;99834.34;1707415;81;21521;-65
2021/06/02 05:00:50;;;;;;;2.02;1.90;;;;;;;22.36;48.71;99828.70;1741371;81;21005;-67
2021/06/02 05:03:50;;;;;;;3.85;1.70;;;;;;;22.37;48.71;99839.83;1750106;81;21131;-66
2021/06/02 05:06:37;;;;;;;1.55;1.45;;;;;;;22.37;48.75;99834.41;1735019;82;21005;-65
2021/06/02 05:09:48;;;;;;;1.67;1.50;;;;;;;22.38;48.80;99837.39;1729633;82;21033;-67
2021/06/02 05:12:36;;;;;;;1.62;1.52;;;;;;;22.39;48.80;99841.75;1747354;82;21797;-65
2021/06/02 05:15:50;;;;;;;2.02;1.60;;;;;;;22.41;48.84;99840.98;1749154;82;21076;-66
2021/06/02 05:18:45;;;;;;;1.40;1.25;;;;;;;22.42;48.84;99838.55;1745569;80;21001;-67
2021/06/02 05:22:05;;;;;;;2.80;1.60;;;;;;;22.44;48.88;99840.47;1738640;82;21053;-67
2021/06/02 05:25:04;;;;;;;1.60;1.50;;;;;;;22.41;48.88;99835.56;1738004;82;21084;-66
2021/06/02 05:28:16;;;;;;;1.40;1.30;;;;;;;22.46;48.94;99836.98;1737577;82;21055;-69
2021/06/02 05:31:09;;;;;;;1.75;1.42;;;;;;;22.48;48.92;99845.68;1734969;81;21045;-67
2021/06/02 05:34:07;;;;;;;1.87;1.70;;;;;;;22.51;49.01;99839.80;1730433;82;21096;-66
2021/06/02 05:36:54;;;;;;;1.65;1.55;;;;;;;22.53;49.01;99840.37;1725895;82;21026;-68
2021/06/02 05:40:01;;;;;;;1.50;1.40;;;;;;;22.55;49.09;99839.59;1730927;81;21091;-67
2021/06/02 05:43:08;;;;;;;1.70;1.40;;;;;;;22.58;49.12;99838.30;1734985;82;21149;-69
2021/06/02 05:46:11;;;;;;;1.55;1.45;;;;;;;22.62;49.11;99845.37;1708691;81;21564;-69
2021/06/02 05:49:18;;;;;;;3.30;1.57;;;;;;;22.64;49.37;99835.11;1731500;82;21010;-66
2021/06/02 05:52:25;;;;;;;1.47;1.37;;;;;;;22.67;49.22;99848.98;1731030;80;21017;-69
2021/06/02 05:55:34;;;;;;;1.50;1.37;;;;;;;22.70;49.29;99843.09;1740963;80;21092;-68
2021/06/02 05:58:33;;;;;;;1.50;1.40;;;;;;;22.74;49.27;99847.48;1735724;81;21135;-67
2021/06/02 06:01:57;;;;;;;1.70;1.55;;;;;;;22.77;49.32;99846.47;1738317;80;21052;-66
2021/06/02 06:05:07;;;;;;;1.40;1.30;;;;;;;22.82;49.29;99850.33;1706482;82;21011;-67
2021/06/02 06:07:52;;;;;;;1.82;1.40;;;;;;;22.83;49.34;99854.14;1740252;80;21085;-70
2021/06/02 06:10:53;;;;;;;1.45;1.35;;;;;;;22.86;49.27;99850.11;1741821;81;21082;-73
2021/06/02 06:13:46;;;;;;;2.45;1.50;;;;;;;22.89;49.31;99855.86;1740080;82;21152;-71
2021/06/02 06:16:50;;;;;;;1.85;1.50;;;;;;;22.92;49.30;99863.48;1741708;82;21077;-69
2021/06/02 06:19:32;;;;;;;1.80;1.42;;;;;;;22.94;49.42;99863.23;1701172;82;21104;-69
2021/06/02 06:22:19;;;;;;;1.70;1.32;;;;;;;22.96;49.48;99866.52;1742472;82;21109;-71
2021/06/02 06:24:56;;;;;;;1.57;1.47;;;;;;;22.99;49.30;99870.64;1742123;80;21053;-68
2021/06/02 06:27:52;;;;;;;1.60;1.50;;;;;;;23.02;49.48;99855.23;1740595;81;21144;-70
2021/06/02 06:30:31;;;;;;;1.67;1.40;;;;;;;23.06;49.46;99861.82;1693238;84;21110;-70
2021/06/02 06:32:58;;;;;;;1.40;1.30;;;;;;;23.08;49.76;99853.75;1732108;80;21070;-72
2021/06/02 06:35:28;;;;;;;1.50;1.40;;;;;;;23.13;49.74;99863.84;1736998;81;21109;-75
2021/06/02 06:37:56;;;;;;;1.62;1.52;;;;;;;23.16;49.66;99864.16;1742933;82;21069;-68
2021/06/02 06:40:25;;;;;;;2.75;1.60;;;;;;;23.21;49.62;99849.86;1736484;82;21136;-67
2021/06/02 06:42:54;;;;;;;2.00;1.60;;;;;;;23.26;49.56;99845.06;1742753;81;20994;-74
2021/06/02 06:45:33;;;;;;;2.65;1.62;;;;;;;23.29;49.50;99845.36;1741021;80;21532;-71
2021/06/02 06:48:08;;;;;;;2.08;1.40;;;;;;;23.32;49.46;99838.09;1739709;82;21003;-71
2021/06/02 06:50:35;;;;;;;2.22;1.60;;;;;;;23.37;49.43;99842.76;1739519;81;21050;-67
2021/06/02 06:53:03;;;;;;;2.10;1.90;;;;;;;23.41;49.40;99853.92;1741560;82;21139;-65
2021/06/02 06:55:29;;;;;;;1.65;1.50;;;;;;;23.43;49.38;99845.84;1739924;80;21443;-67
2021/06/02 06:57:56;;;;;;;1.60;1.35;;;;;;;23.47;49.32;99835.30;1694922;84;22136;-67
2021/06/02 07:00:22;;;;;;;1.42;1.32;;;;;;;23.50;49.18;99828.03;1736554;80;21143;-66
2021/06/02 07:02:49;;;;;;;2.42;1.60;;;;;;;23.53;49.10;99838.38;1687096;82;21017;-67
2021/06/02 07:05:15;;;;;;;1.80;1.70;;;;;;;23.55;49.05;99832.98;1735789;82;21821;-70
2021/06/02 07:07:44;;;;;;;2.45;2.25;;;;;;;23.58;49.03;99831.65;1734284;81;21049;-70
2021/06/02 07:10:13;;;;;;;13.62;7.50;;;;;;;23.61;48.99;99833.87;1730276;82;21514;-70
2021/06/02 07:12:42;;;;;;;9.50;6.00;;;;;;;23.62;50.47;99839.56;1732439;82;21058;-71
2021/06/02 07:15:11;;;;;;;10.03;5.60;;;;;;;23.63;50.54;99833.63;1734411;82;21040;-67
2021/06/02 07:17:40;;;;;;;11.05;5.50;;;;;;;23.63;48.54;99837.15;1734870;80;21133;-71
2021/06/02 07:20:10;;;;;;;7.10;4.87;;;;;;;23.57;47.69;99825.15;1731726;80;20982;-70
2021/06/02 07:22:43;;;;;;;11.85;5.60;;;;;;;23.47;46.79;99830.72;1736471;80;21037;-69
2021/06/02 07:25:14;;;;;;;10.38;5.00;;;;;;;23.33;47.09;99828.91;1736745;81;21064;-69
2021/06/02 07:27:40;;;;;;;7.17;4.15;;;;;;;23.29;47.44;99831.00;1707658;82;21024;-68
2021/06/02 07:30:08;;;;;;;11.03;4.55;;;;;;;23.26;46.28;99832.33;1735981;82;21131;-66
2021/06/02 07:32:36;;;;;;;12.82;4.17;;;;;;;23.18;45.84;99837.34;1741550;81;21069;-71
2021/06/02 07:35:03;;;;;;;13.85;5.00;;;;;;;23.07;45.46;99848.58;1741619;82;21124;-78
2021/06/02 07:37:32;;;;;;;11.83;5.17;;;;;;;22.96;45.70;99844.30;1742212;80;21066;-71
2021/06/02 07:39:59;;;;;;;9.90;4.17;;;;;;;22.89;45.59;99845.03;1729971;80;21065;-69
2021/06/02 07:42:26;;;;;;;18.10;4.92;;;;;;;22.82;45.56;99841.66;1734942;81;21137;-67
2021/06/02 07:44:54;;;;;;;10.03;4.35;;;;;;;22.77;45.75;99842.92;1738106;80;21571;-71
2021/06/02 07:47:22;;;;;;;10.55;4.05;;;;;;;22.75;45.76;99840.99;1732656;81;21093;-66
2021/06/02 07:49:48;;;;;;;11.20;4.65;;;;;;;22.73;45.75;99839.88;1733888;82;21025;-69
2021/06/02 07:52:15;;;;;;;10.20;4.15;;;;;;;22.72;45.61;99837.44;1742794;81;21565;-72
2021/06/02 07:54:41;;;;;;;6.58;3.80;;;;;;;22.71;45.58;99843.91;1728827;82;21030;-71
2021/06/02 07:57:08;;;;;;;14.30;4.33;;;;;;;22.72;45.67;99829.31;1724541;81;21037;-75
2021/06/02 07:59:35;;;;;;;5.90;3.90;;;;;;;22.73;45.79;99830.40;1736435;82;21072;-71
2021/06/02 08:02:02;;;;;;;7.50;3.65;;;;;;;22.76;46.77;99839.40;1739976;82;21121;-70
2021/06/02 08:04:30;;;;;;;7.67;3.92;;;;;;;22.84;47.22;99846.30;1742395;82;21526;-74
2021/06/02 08:06:57;;;;;;;7.15;3.65;;;;;;;22.94;47.94;99831.55;1742239;82;21803;-75
2021/06/02 08:09:33;;;;;;;6.17;3.20;;;;;;;23.07;47.62;99844.52;1739786;82;21022;-79
2021/06/02 08:12:06;;;;;;;7.80;3.75;;;;;;;23.16;47.34;99849.80;1737004;82;21133;-77
2021/06/02 08:14:34;;;;;;;7.67;3.80;;;;;;;23.25;47.80;99851.00;1729335;81;21114;-75
2021/06/02 08:17:01;;;;;;;7.08;3.08;;;;;;;23.35;48.18;99855.23;1742573;82;21112;-77
2021/06/02 08:19:28;;;;;;;26.57;14.05;;;;;;;23.47;48.15;99846.14;1736992;79;21132;-80
2021/06/02 08:21:56;;;;;;;21.15;9.35;;;;;;;23.57;48.63;99852.27;1727883;81;21045;-75
2021/06/02 08:24:23;;;;;;;10.15;5.20;;;;;;;23.67;49.12;99844.25;1739067;80;21022;-75
2021/06/02 08:26:50;;;;;;;9.85;5.83;;;;;;;23.77;47.97;99844.91;1746552;81;21483;-73
2021/06/02 08:29:17;;;;;;;8.58;3.87;;;;;;;23.82;46.94;99836.88;1747238;80;21077;-78
2021/06/02 08:31:44;;;;;;;8.00;4.97;;;;;;;23.85;46.16;99853.98;1746149;80;21613;-68
2021/06/02 08:34:11;;;;;;;7.37;4.05;;;;;;;23.86;46.70;99852.38;1739513;80;21581;-69
2021/06/02 08:36:38;;;;;;;7.70;4.25;;;;;;;23.90;47.11;99852.16;1747913;80;21054;-70
2021/06/02 08:39:07;;;;;;;11.63;4.17;;;;;;;23.97;47.48;99843.84;1743914;81;21006;-71
2021/06/02 08:41:38;;;;;;;10.15;4.10;;;;;;;24.05;47.70;99845.25;1737618;80;21056;-71
2021/06/02 08:44:06;;;;;;;10.30;4.55;;;;;;;24.11;47.82;99844.25;1728125;80;21114;-71
2021/06/02 08:46:35;;;;;;;16.90;4.92;;;;;;;24.19;47.90;99860.08;1745175;80;21101;-73
2021/06/02 08:49:02;;;;;;;8.35;3.85;;;;;;;24.26;48.00;99862.57;1734854;80;21073;-72
2021/06/02 08:51:30;;;;;;;7.25;4.05;;;;;;;24.32;48.03;99864.29;1740055;80;20995;-71
2021/06/02 08:53:58;;;;;;;6.67;2.50;;;;;;;24.39;47.39;99864.07;1680970;83;21120;-72
2021/06/02 08:56:24;;;;;;;9.08;2.70;;;;;;;24.43;46.43;99870.08;1741199;80;21078;-73
2021/06/02 08:58:51;;;;;;;7.55;3.12;;;;;;;24.45;45.09;99866.56;1746946;80;21025;-76
2021/06/02 09:01:18;;;;;;;5.08;2.60;;;;;;;24.46;44.89;99873.65;1746898;80;21089;-76
2021/06/02 09:03:44;;;;;;;4.83;2.60;;;;;;;24.47;44.89;99853.58;1711049;80;21153;-71
2021/06/02 09:06:11;;;;;;;4.37;3.20;;;;;;;24.48;43.94;99868.78;1746947;80;21062;-76
2021/06/02 09:08:39;;;;;;;3.20;2.42;;;;;;;24.48;43.37;99876.92;1746643;80;21549;-74
2021/06/02 09:11:14;;;;;;;7.22;2.92;;;;;;;24.46;42.87;99872.84;1745125;80;21078;-73
2021/06/02 09:13:43;;;;;;;9.35;2.75;;;;;;;24.42;42.49;99871.72;1746140;80;21089;-75
2021/06/02 09:16:24;;;;;;;4.30;2.52;;;;;;;24.39;42.27;99877.09;1741751;80;21616;-77
2021/06/02 09:19:04;;;;;;;4.37;2.05;;;;;;;24.38;42.22;99866.48;1733152;80;21037;-76
2021/06/02 09:21:31;;;;;;;3.40;2.33;;;;;;;24.33;42.08;99864.55;1740612;80;21239;-68
2021/06/02 09:23:58;;;;;;;3.62;2.47;;;;;;;24.30;41.89;99865.08;1745775;80;21042;-72
2021/06/02 09:26:26;;;;;;;3.17;2.00;;;;;;;24.28;42.21;99872.63;1678632;84;21083;-70
2021/06/02 09:29:15;;;;;;;3.90;2.08;;;;;;;24.28;41.93;99868.56;1742160;80;21062;-73
2021/06/02 09:31:42;;;;;;;4.50;2.40;;;;;;;24.26;41.69;99863.41;1738707;80;21109;-76
2021/06/02 09:34:18;;;;;;;3.67;2.22;;;;;;;24.23;41.59;99861.75;1712314;82;21104;-76
2021/06/02 09:36:48;;;;;;;5.10;2.15;;;;;;;24.21;41.77;99871.49;1679089;83;21080;-76
2021/06/02 09:39:16;;;;;;;6.10;2.20;;;;;;;24.19;41.66;99854.64;1742857;80;21133;-70
2021/06/02 09:41:48;;;;;;;3.77;2.20;;;;;;;24.18;41.60;99865.75;1732611;80;21077;-75
2021/06/02 09:44:21;;;;;;;5.67;2.00;;;;;;;24.15;41.62;99864.37;1735538;80;21041;-78
2021/06/02 09:47:05;;;;;;;2.77;1.98;;;;;;;24.14;41.35;99872.22;1738050;80;21162;-75
2021/06/02 09:49:56;;;;;;;3.58;1.98;;;;;;;24.10;41.46;99863.77;1740012;81;21558;-79
2021/06/02 09:52:47;;;;;;;4.37;2.30;;;;;;;24.07;42.26;99868.91;1730191;80;21085;-78
2021/06/02 09:55:18;;;;;;;4.35;2.08;;;;;;;24.09;42.68;99864.05;1733544;80;21154;-78
2021/06/02 09:57:45;;;;;;;4.60;2.33;;;;;;;24.13;43.11;99859.74;1739504;80;21038;-77
2021/06/02 10:00:14;;;;;;;3.75;2.33;;;;;;;24.19;43.36;99855.19;1740934;80;22088;-76
2021/06/02 10:02:43;;;;;;;4.47;2.35;;;;;;;24.18;43.53;99850.83;1739315;80;21065;-72
2021/06/02 10:05:11;;;;;;;2.30;1.90;;;;;;;24.27;43.57;99842.52;1729481;80;21533;-78
2021/06/02 10:07:46;;;;;;;3.42;2.30;;;;;;;24.31;43.54;99858.56;1741809;81;21095;-75
2021/06/02 10:10:19;;;;;;;3.58;2.10;;;;;;;24.35;43.51;99852.90;1741702;80;21073;-72
2021/06/02 10:13:12;;;;;;;3.72;2.15;;;;;;;24.39;43.57;99855.38;1754917;80;21058;-73
2021/06/02 10:15:49;;;;;;;3.77;2.17;;;;;;;24.42;43.57;99841.30;1740320;80;21021;-71
2021/06/02 10:18:30;;;;;;;;;;;;;;;24.44;43.66;99860.88;1734544;80;21144;-70
2021/06/02 10:21:04;;;;;;;3.67;2.22;;;;;;;24.46;43.72;99841.06;1740582;80;20182;-78
2021/06/02 10:23:42;;;;;;;2.35;1.98;;;;;;;24.40;43.95;99862.46;1728185;80;21131;-72
2021/06/02 10:26:17;;;;;;;2.98;2.00;;;;;;;24.42;43.97;99858.95;1722744;80;21196;-74
2021/06/02 10:28:47;;;;;;;2.83;2.08;;;;;;;24.45;44.04;99852.18;1723829;80;21110;-69
2021/06/02 10:31:14;;;;;;;2.90;2.25;;;;;;;24.47;44.06;99859.02;1678759;84;21032;-71
2021/06/02 10:33:41;;;;;;;4.28;2.87;;;;;;;24.49;44.21;99865.00;1737670;80;21097;-76
2021/06/02 10:36:09;;;;;;;3.42;2.42;;;;;;;24.51;44.32;99852.02;1739752;80;21064;-73
2021/06/02 10:38:46;;;;;;;4.10;2.33;;;;;;;24.53;44.38;99866.16;1739625;80;21221;-73
2021/06/02 10:41:25;;;;;;;3.58;2.30;;;;;;;24.56;44.49;99878.39;1740529;80;21030;-74
2021/06/02 10:43:53;;;;;;;3.67;2.65;;;;;;;24.58;44.48;99863.20;1740842;80;21031;-73
2021/06/02 10:46:26;;;;;;;3.58;2.50;;;;;;;24.59;44.62;99874.33;1736194;80;21034;-71
2021/06/02 10:48:56;;;;;;;3.58;2.20;;;;;;;24.60;44.68;99865.12;1742823;80;21035;-73
2021/06/02 10:51:37;;;;;;;4.45;2.30;;;;;;;24.60;44.73;99863.77;1740317;80;21156;-77
2021/06/02 10:54:16;;;;;;;3.35;2.17;;;;;;;24.60;44.77;99866.47;1742701;80;21043;-75
2021/06/02 10:57:04;;;;;;;3.40;1.90;;;;;;;24.63;44.78;99874.13;1733765;80;21042;-76
2021/06/02 10:59:35;;;;;;;6.65;2.35;;;;;;;24.64;44.82;99870.31;1737709;80;21409;-78
2021/06/02 11:02:20;;;;;;;3.02;2.15;;;;;;;24.63;44.97;99867.33;1674788;83;21069;-77
2021/06/02 11:05:07;;;;;;;5.65;2.67;;;;;;;24.63;44.96;99876.29;1740812;80;21136;-77
2021/06/02 11:07:35;;;;;;;4.15;2.75;;;;;;;24.63;44.97;99872.22;1743605;82;21104;-75
2021/06/02 11:10:12;;;;;;;4.75;2.40;;;;;;;24.64;44.97;99879.81;1743722;82;21085;-69
2021/06/02 11:12:55;;;;;;;4.35;3.00;;;;;;;24.64;45.05;99870.31;1741512;80;21093;-70
2021/06/02 11:15:38;;;;;;;5.35;2.33;;;;;;;24.66;45.00;99881.19;1744421;80;21561;-69
2021/06/02 11:18:15;;;;;;;;;;;;;;;24.67;45.00;99882.03;1743055;80;21575;-73
2021/06/02 11:20:48;;;;;;;3.45;2.40;;;;;;;24.67;45.05;99890.18;1742661;80;20174;-70
2021/06/02 11:23:20;;;;;;;5.47;2.50;;;;;;;24.60;45.38;99882.77;1743232;80;21490;-68
2021/06/02 11:25:49;;;;;;;4.03;2.25;;;;;;;24.61;45.97;99885.23;1743041;82;21105;-70
2021/06/02 11:28:44;;;;;;;5.62;2.60;;;;;;;24.63;46.64;99887.16;1743366;82;21042;-70
2021/06/02 11:31:28;;;;;;;5.15;2.75;;;;;;;24.65;47.37;99881.47;1681347;83;21837;-70
2021/06/02 11:34:28;;;;;;;3.17;2.60;;;;;;;24.66;48.05;99870.87;1751945;80;21049;-66
2021/06/02 11:37:06;;;;;;;3.60;2.77;;;;;;;24.67;48.49;99879.31;1671656;83;21069;-70
2021/06/02 11:39:36;;;;;;;3.40;2.58;;;;;;;24.67;48.73;99879.31;1760560;80;21049;-75
2021/06/02 11:42:04;;;;;;;6.03;2.55;;;;;;;24.69;48.98;99874.44;1743896;80;21006;-75
2021/06/02 11:44:34;;;;;;;4.28;2.50;;;;;;;24.72;49.14;99893.77;1743339;80;21085;-73
2021/06/02 11:47:01;;;;;;;5.60;2.60;;;;;;;24.75;49.22;99878.02;1754371;80;21007;-73
2021/06/02 11:49:32;;;;;;;5.45;2.50;;;;;;;24.78;49.13;99889.16;1735369;80;21557;-73
2021/06/02 11:52:14;;;;;;;3.42;2.77;;;;;;;24.81;48.97;99889.20;1752980;80;21029;-78
2021/06/02 11:54:53;;;;;;;4.62;2.17;;;;;;;24.83;48.89;99888.41;1743089;80;21390;-74
2021/06/02 11:57:32;;;;;;;5.35;2.10;;;;;;;24.84;48.71;99880.00;1751628;80;21151;-74
2021/06/02 12:00:03;;;;;;;3.10;2.33;;;;;;;24.87;48.59;99880.83;1741982;80;21127;-73
2021/06/02 12:02:31;;;;;;;3.52;2.95;;;;;;;24.88;48.39;99875.69;1673415;83;21566;-74
2021/06/02 12:05:20;;;;;;;2.87;2.20;;;;;;;24.90;48.24;99865.38;1743151;80;21072;-75
2021/06/02 12:07:48;;;;;;;4.72;2.42;;;;;;;24.92;48.09;99858.33;1739686;80;21074;-76
2021/06/02 12:10:15;;;;;;;2.95;2.35;;;;;;;24.94;47.95;99861.61;1744847;82;21781;-74
2021/06/02 12:12:44;;;;;;;3.52;1.90;;;;;;;24.96;47.82;99873.03;1677948;83;21059;-78
2021/06/02 12:15:13;;;;;;;2.90;2.20;;;;;;;24.98;47.72;99867.34;1741899;82;21065;-77
2021/06/02 12:17:40;;;;;;;4.10;2.30;;;;;;;25.01;47.61;99885.28;1726295;80;21003;-75
2021/06/02 12:20:11;;;;;;;2.90;2.47;;;;;;;25.03;47.52;99874.97;1715279;82;21057;-77
2021/06/02 12:22:38;;;;;;;3.72;2.50;;;;;;;25.08;47.39;99876.92;1708077;82;21880;-82
2021/06/02 12:25:17;;;;;;;4.62;2.40;;;;;;;25.09;47.30;99875.31;1715134;82;21038;-76
2021/06/02 12:27:54;;;;;;;4.42;3.02;;;;;;;25.13;47.21;99871.53;1706368;82;21054;-79
2021/06/02 12:30:36;;;;;;;4.87;2.22;;;;;;;25.16;47.10;99872.34;1715596;82;21087;-87